Time;durP1;ratioP1;P1;durP2;ratioP2;P2;SDS_P1;SDS_P2;PMS_P1;PMS_P2;Temp;Humidity;BMP_temperature;BMP_pressure;BME280_temperature;BME280_humidity;BME280_pressure;Samples;Min_cycle;Max_cycle;Signal;HPM_P1;HPM_P2
2023/10/29 00:00:15;;;;;;;3.58;1.70;;;;;;;;;;5116589;28;20494;-68
2023/10/29 00:02:40;;;;;;;8.20;2.28;;;;;;;;;;5116476;28;20028;-67
2023/10/29 00:05:06;;;;;;;2.30;1.67;;;;;;;;;;5115877;28;20030;-68
2023/10/29 00:07:32;;;;;;;7.03;2.22;;;;;;;;;;5115911;28;20019;-70
2023/10/29 00:09:57;;;;;;;2.95;1.60;;;;;;;;;;5116185;28;20076;-67
2023/10/29 00:12:23;;;;;;;3.97;1.70;;;;;;;;;;5116281;28;20043;-67
2023/10/29 00:14:48;;;;;;;4.05;1.50;;;;;;;;;;5115891;28;20107;-67
2023/10/29 00:17:14;;;;;;;5.85;1.60;;;;;;;;;;5115794;28;20064;-68
2023/10/29 00:19:39;;;;;;;5.15;1.60;;;;;;;;;;5115873;28;20019;-67
2023/10/29 00:22:05;;;;;;;2.95;1.40;;;;;;;;;;5114313;28;20032;-67
2023/10/29 00:24:31;;;;;;;2.45;1.45;;;;;;;;;;5115345;28;20433;-67
2023/10/29 00:26:56;;;;;;;2.55;1.50;;;;;;;;;;5116006;28;20106;-68
2023/10/29 00:29:22;;;;;;;10.55;1.77;;;;;;;;;;5115314;28;20016;-68
2023/10/29 00:31:47;;;;;;;5.78;1.67;;;;;;;;;;5116104;28;20077;-68
2023/10/29 00:34:13;;;;;;;4.05;1.50;;;;;;;;;;5115245;27;20034;-68
2023/10/29 00:36:39;;;;;;;2.60;1.30;;;;;;;;;;5117278;28;20107;-68
2023/10/29 00:39:04;;;;;;;4.00;1.90;;;;;;;;;;5116088;28;20365;-75
2023/10/29 00:41:30;;;;;;;2.47;1.40;;;;;;;;;;5116423;27;20051;-68
2023/10/29 00:43:56;;;;;;;5.78;1.65;;;;;;;;;;5106340;28;20032;-68
2023/10/29 00:46:24;;;;;;;8.07;1.30;;;;;;;;;;5115120;28;20034;-68
2023/10/29 00:48:50;;;;;;;2.38;1.27;;;;;;;;;;5115557;28;20031;-68
2023/10/29 00:51:16;;;;;;;2.03;1.40;;;;;;;;;;5116141;28;20057;-69
2023/10/29 00:53:42;;;;;;;5.65;1.50;;;;;;;;;;5120677;28;20055;-68
2023/10/29 00:56:08;;;;;;;2.38;1.23;;;;;;;;;;5116410;28;20501;-68
2023/10/29 00:58:34;;;;;;;4.07;1.45;;;;;;;;;;5116181;28;20031;-68
2023/10/29 01:01:00;;;;;;;2.15;1.60;;;;;;;;;;5116640;28;20529;-67
2023/10/29 01:03:25;;;;;;;5.90;1.55;;;;;;;;;;5116139;28;20019;-70
2023/10/29 01:05:51;;;;;;;5.18;1.33;;;;;;;;;;5115720;28;20020;-68
2023/10/29 01:08:17;;;;;;;3.42;1.33;;;;;;;;;;5116069;28;20023;-69
2023/10/29 01:10:43;;;;;;;1.70;1.60;;;;;;;;;;5115847;28;20123;-68
2023/10/29 01:13:08;;;;;;;3.30;1.50;;;;;;;;;;5115216;28;20126;-68
2023/10/29 01:15:34;;;;;;;3.13;1.60;;;;;;;;;;5114867;28;20070;-68
2023/10/29 01:17:59;;;;;;;5.97;1.33;;;;;;;;;;5113277;28;20024;-69
2023/10/29 01:20:25;;;;;;;7.57;1.60;;;;;;;;;;5116040;28;20064;-68
2023/10/29 01:22:50;;;;;;;3.33;1.40;;;;;;;;;;5114191;28;20020;-68
2023/10/29 01:25:17;;;;;;;3.15;1.65;;;;;;;;;;5114420;28;20027;-68
2023/10/29 01:27:44;;;;;;;3.30;1.30;;;;;;;;;;5114143;28;20487;-68
2023/10/29 01:30:10;;;;;;;2.92;1.30;;;;;;;;;;5113134;28;20079;-68
2023/10/29 01:32:38;;;;;;;2.72;1.25;;;;;;;;;;5114891;28;20023;-68
2023/10/29 01:35:04;;;;;;;4.20;1.40;;;;;;;;;;5114444;28;20076;-68
2023/10/29 01:37:30;;;;;;;1.67;1.42;;;;;;;;;;5113752;28;20023;-68
2023/10/29 01:39:55;;;;;;;3.97;1.88;;;;;;;;;;5114667;28;20027;-68
2023/10/29 01:42:21;;;;;;;3.08;1.25;;;;;;;;;;5114369;28;20022;-67
2023/10/29 01:44:46;;;;;;;3.00;1.27;;;;;;;;;;5114275;28;20114;-67
2023/10/29 01:47:12;;;;;;;2.03;1.20;;;;;;;;;;5114458;28;20043;-68
2023/10/29 01:49:38;;;;;;;2.05;1.30;;;;;;;;;;5115429;28;20562;-68
2023/10/29 01:52:04;;;;;;;3.83;1.30;;;;;;;;;;5114947;28;20015;-68
2023/10/29 01:54:30;;;;;;;1.92;1.33;;;;;;;;;;5113697;28;20143;-64
2023/10/29 01:56:55;;;;;;;1.55;1.45;;;;;;;;;;5113788;28;20064;-64
2023/10/29 01:59:21;;;;;;;2.42;1.40;;;;;;;;;;5113564;28;20047;-64
2023/10/29 02:01:46;;;;;;;2.83;1.48;;;;;;;;;;5113616;28;20020;-64
2023/10/29 02:04:12;;;;;;;2.75;1.20;;;;;;;;;;5113397;28;20380;-64
2023/10/29 02:06:39;;;;;;;3.22;1.30;;;;;;;;;;5113375;28;20077;-64
2023/10/29 02:09:09;;;;;;;2.67;1.10;;;;;;;;;;5113647;28;20023;-64
2023/10/29 02:11:36;;;;;;;1.50;1.40;;;;;;;;;;5114097;28;20027;-64
2023/10/29 02:14:01;;;;;;;1.20;1.10;;;;;;;;;;5113159;28;20031;-64
2023/10/29 02:16:27;;;;;;;1.90;1.23;;;;;;;;;;5113371;28;20039;-65
2023/10/29 02:18:53;;;;;;;2.28;1.27;;;;;;;;;;5113476;28;20349;-64
2023/10/29 02:21:20;;;;;;;2.42;1.20;;;;;;;;;;5113071;28;20399;-65
2023/10/29 02:23:46;;;;;;;2.08;1.35;;;;;;;;;;5113153;28;20030;-65
2023/10/29 02:26:11;;;;;;;1.98;1.10;;;;;;;;;;5113018;28;20027;-65
2023/10/29 02:28:37;;;;;;;3.70;1.23;;;;;;;;;;5113211;28;20024;-64
2023/10/29 02:31:03;;;;;;;2.88;1.20;;;;;;;;;;5113337;28;20539;-64
2023/10/29 02:33:30;;;;;;;1.90;1.10;;;;;;;;;;5113517;28;20027;-64
2023/10/29 02:35:56;;;;;;;2.58;1.30;;;;;;;;;;5114559;28;20031;-75
2023/10/29 02:38:23;;;;;;;1.88;1.25;;;;;;;;;;5116539;28;20043;-64
2023/10/29 02:40:49;;;;;;;4.93;1.42;;;;;;;;;;5112251;28;20063;-64
2023/10/29 02:43:15;;;;;;;1.50;1.38;;;;;;;;;;5113193;28;20100;-64
2023/10/29 02:45:41;;;;;;;2.95;1.30;;;;;;;;;;5115198;28;20035;-64
2023/10/29 02:48:07;;;;;;;2.28;1.27;;;;;;;;;;5097615;28;20454;-69
2023/10/29 02:50:32;;;;;;;1.95;1.35;;;;;;;;;;5093991;28;20024;-64
2023/10/29 02:52:58;;;;;;;1.95;1.23;;;;;;;;;;5097023;28;20081;-64
2023/10/29 02:55:23;;;;;;;3.03;1.20;;;;;;;;;;5095111;28;20027;-76
2023/10/29 02:57:49;;;;;;;2.95;1.35;;;;;;;;;;5095030;28;20028;-76
2023/10/29 03:00:15;;;;;;;2.33;1.20;;;;;;;;;;5096988;28;20020;-64
2023/10/29 03:02:40;;;;;;;1.30;1.20;;;;;;;;;;5095861;28;20033;-65
2023/10/29 03:05:09;;;;;;;1.55;1.27;;;;;;;;;;5093054;28;20039;-67
2023/10/29 03:07:35;;;;;;;3.17;1.38;;;;;;;;;;5095309;28;20020;-77
2023/10/29 03:10:00;;;;;;;1.25;1.13;;;;;;;;;;5104196;28;20038;-70
2023/10/29 03:12:26;;;;;;;2.13;1.30;;;;;;;;;;5109976;28;20028;-75
2023/10/29 03:14:51;;;;;;;1.80;1.20;;;;;;;;;;5096877;28;20028;-75
2023/10/29 03:17:17;;;;;;;1.60;1.17;;;;;;;;;;5098523;28;20491;-70
2023/10/29 03:19:44;;;;;;;2.60;1.10;;;;;;;;;;5097844;28;20020;-75
2023/10/29 03:22:10;;;;;;;1.38;1.10;;;;;;;;;;5071913;28;20021;-71
2023/10/29 03:24:35;;;;;;;2.33;1.33;;;;;;;;;;5099242;28;20102;-76
2023/10/29 03:27:01;;;;;;;1.90;1.20;;;;;;;;;;5094304;28;20024;-72
2023/10/29 03:29:26;;;;;;;2.55;2.00;;;;;;;;;;5092414;28;20556;-71
2023/10/29 03:31:52;;;;;;;1.30;1.08;;;;;;;;;;5093046;28;20107;-70
2023/10/29 03:34:18;;;;;;;1.55;1.02;;;;;;;;;;5100583;28;20020;-72
2023/10/29 03:36:43;;;;;;;3.00;1.27;;;;;;;;;;5102442;28;20045;-70
2023/10/29 03:39:09;;;;;;;3.53;1.20;;;;;;;;;;5107722;28;20024;-70
2023/10/29 03:41:35;;;;;;;3.53;1.05;;;;;;;;;;5100553;28;20557;-69
2023/10/29 10:13:41;;;;;;;1.17;1.05;;;;;;;;;;6122099;22;1887146;-61
2023/10/29 10:16:11;;;;;;;1.15;0.98;;;;;;;;;;6215623;23;20087;-64
2023/10/29 10:18:50;;;;;;;;;;;;;;;;;;6215739;23;20314;-71
2023/10/29 10:21:16;;;;;;;1.30;1.00;;;;;;;;;;6215438;23;19907;-73
2023/10/29 10:23:53;;;;;;;2.28;1.27;;;;;;;;;;6215130;23;20051;-62
2023/10/29 10:26:30;;;;;;;0.85;0.85;;;;;;;;;;6215366;23;20012;-71
2023/10/29 10:28:58;;;;;;;1.50;1.00;;;;;;;;;;6215160;23;20009;-66
2023/10/29 10:31:27;;;;;;;1.23;1.13;;;;;;;;;;6215033;23;20453;-63
2023/10/29 10:34:12;;;;;;;1.00;0.90;;;;;;;;;;6214993;23;20406;-71
2023/10/29 10:36:38;;;;;;;3.33;1.35;;;;;;;;;;6214825;23;20005;-74
2023/10/29 10:39:04;;;;;;;1.33;0.93;;;;;;;;;;6215294;23;20059;-66
2023/10/29 10:41:41;;;;;;;1.75;1.20;;;;;;;;;;6214923;23;20004;-70
2023/10/29 10:44:19;;;;;;;1.20;1.10;;;;;;;;;;6214933;23;20004;-75
2023/10/29 10:46:58;;;;;;;1.10;1.00;;;;;;;;;;6215061;23;20322;-63
2023/10/29 10:49:24;;;;;;;1.15;1.10;;;;;;;;;;6214913;23;20039;-74
2023/10/29 10:51:54;;;;;;;0.98;0.90;;;;;;;;;;6214851;23;20364;-66
2023/10/29 10:54:21;;;;;;;1.20;1.10;;;;;;;;;;6214810;23;20059;-73
2023/10/29 10:56:49;;;;;;;0.90;0.90;;;;;;;;;;6214803;23;20013;-70
2023/10/29 10:59:15;;;;;;;1.13;1.02;;;;;;;;;;6212589;23;20385;-72
2023/10/29 11:01:41;;;;;;;1.33;1.00;;;;;;;;;;6214885;23;20066;-68
2023/10/29 11:04:08;;;;;;;1.55;1.10;;;;;;;;;;6215193;23;20270;-72
2023/10/29 11:06:38;;;;;;;1.65;1.20;;;;;;;;;;6213333;23;20021;-64
2023/10/29 11:09:06;;;;;;;1.00;0.90;;;;;;;;;;6215091;23;20019;-64
2023/10/29 11:11:38;;;;;;;2.53;1.17;;;;;;;;;;6214945;23;20095;-73
2023/10/29 11:14:11;;;;;;;1.13;1.00;;;;;;;;;;6263283;22;20008;-66
2023/10/29 11:16:56;;;;;;;1.77;1.20;;;;;;;;;;6276045;22;20328;-64
2023/10/29 11:19:42;;;;;;;1.00;0.90;;;;;;;;;;6275882;22;20007;-65
2023/10/29 11:22:18;;;;;;;1.88;1.15;;;;;;;;;;6276012;22;20321;-71
2023/10/29 11:25:04;;;;;;;1.30;1.20;;;;;;;;;;6276166;22;20084;-64
2023/10/29 11:27:41;;;;;;;2.05;0.93;;;;;;;;;;6275238;22;20375;-64
2023/10/29 11:30:15;;;;;;;1.33;1.02;;;;;;;;;;6274306;22;20065;-62
2023/10/29 11:32:42;;;;;;;2.38;0.95;;;;;;;;;;6274098;22;20065;-62
2023/10/29 11:35:19;;;;;;;1.25;1.13;;;;;;;;;;6274382;22;20023;-61
2023/10/29 11:37:46;;;;;;;0.95;0.90;;;;;;;;;;6273885;22;20360;-61
2023/10/29 11:40:32;;;;;;;1.65;1.10;;;;;;;;;;6275209;22;20007;-72
2023/10/29 11:43:14;;;;;;;0.90;0.90;;;;;;;;;;6275304;22;20010;-62
2023/10/29 11:45:40;;;;;;;1.10;1.00;;;;;;;;;;6274988;22;20029;-62
2023/10/29 11:48:06;;;;;;;1.45;1.05;;;;;;;;;;6274545;22;20011;-64
2023/10/29 11:50:35;;;;;;;1.27;1.00;;;;;;;;;;6275231;22;20004;-67
2023/10/29 11:53:01;;;;;;;2.67;0.90;;;;;;;;;;6275429;22;20011;-74
2023/10/29 11:55:45;;;;;;;2.53;1.20;;;;;;;;;;6275874;22;20008;-63
2023/10/29 11:58:11;;;;;;;0.95;0.82;;;;;;;;;;6276542;22;20515;-66
2023/10/29 12:00:40;;;;;;;1.45;0.90;;;;;;;;;;6277178;22;20039;-63
2023/10/29 12:03:08;;;;;;;0.93;0.90;;;;;;;;;;6284765;22;20003;-75
2023/10/29 12:05:34;;;;;;;3.60;1.20;;;;;;;;;;6279697;22;20312;-76
2023/10/29 12:08:03;;;;;;;1.70;1.13;;;;;;;;;;6276829;22;20011;-75
2023/10/29 12:10:30;;;;;;;1.23;1.00;;;;;;;;;;6278071;22;20081;-75
2023/10/29 12:12:55;;;;;;;3.72;1.10;;;;;;;;;;6278813;22;20018;-66
2023/10/29 12:15:22;;;;;;;3.97;1.00;;;;;;;;;;6277374;22;20024;-65
2023/10/29 12:17:48;;;;;;;4.45;1.00;;;;;;;;;;6281246;22;20003;-63
2023/10/29 12:20:25;;;;;;;5.05;1.10;;;;;;;;;;6281103;22;20024;-66
2023/10/29 12:22:56;;;;;;;1.25;0.95;;;;;;;;;;6279470;22;19999;-63
2023/10/29 12:25:23;;;;;;;3.92;1.10;;;;;;;;;;6278680;22;20474;-64
2023/10/29 12:27:49;;;;;;;3.38;1.52;;;;;;;;;;6280551;22;20045;-64
2023/10/29 12:30:37;;;;;;;3.95;1.15;;;;;;;;;;6280760;22;20008;-67
2023/10/29 12:33:22;;;;;;;1.98;0.82;;;;;;;;;;6278446;22;20031;-65
2023/10/29 12:35:48;;;;;;;2.92;0.95;;;;;;;;;;6277335;22;20046;-64
2023/10/29 12:38:15;;;;;;;5.38;1.00;;;;;;;;;;6277234;22;20000;-63
2023/10/29 12:41:00;;;;;;;11.45;7.68;;;;;;;;;;6276940;22;19999;-64
2023/10/29 12:43:36;;;;;;;6.07;2.70;;;;;;;;;;6277146;22;20464;-71
2023/10/29 12:46:13;;;;;;;5.28;2.10;;;;;;;;;;6277940;22;20440;-67
2023/10/29 12:48:58;;;;;;;4.55;2.08;;;;;;;;;;6276151;22;20367;-67
2023/10/29 12:51:26;;;;;;;4.03;1.50;;;;;;;;;;6275999;22;20000;-66
2023/10/29 12:53:51;;;;;;;3.60;1.58;;;;;;;;;;6276668;22;20012;-69
2023/10/29 12:56:17;;;;;;;4.68;1.65;;;;;;;;;;6276612;22;20428;-66
2023/10/29 12:58:43;;;;;;;1.25;1.02;;;;;;;;;;6276042;22;20341;-66
2023/10/29 13:01:08;;;;;;;5.10;1.10;;;;;;;;;;6275784;22;20332;-66
2023/10/29 13:03:34;;;;;;;1.58;1.10;;;;;;;;;;6276116;22;19996;-68
2023/10/29 13:06:00;;;;;;;4.50;1.60;;;;;;;;;;6276065;22;19999;-67
2023/10/29 13:08:26;;;;;;;2.28;1.30;;;;;;;;;;6276333;22;20035;-69
2023/10/29 13:10:52;;;;;;;1.92;1.25;;;;;;;;;;6276514;22;20075;-69
2023/10/29 13:13:18;;;;;;;3.22;1.10;;;;;;;;;;6276328;22;20034;-66
2023/10/29 13:15:45;;;;;;;3.95;1.92;;;;;;;;;;6275744;22;19996;-66
2023/10/29 13:18:10;;;;;;;2.35;1.10;;;;;;;;;;6275382;22;20018;-66
2023/10/29 13:20:36;;;;;;;2.28;1.42;;;;;;;;;;6274620;22;20007;-67
2023/10/29 13:23:02;;;;;;;3.53;1.20;;;;;;;;;;6275802;22;20333;-66
2023/10/29 13:25:28;;;;;;;2.28;1.27;;;;;;;;;;6275825;22;20364;-67
2023/10/29 13:27:54;;;;;;;2.15;1.17;;;;;;;;;;6274843;22;20412;-69
2023/10/29 13:30:20;;;;;;;3.90;1.17;;;;;;;;;;6274941;22;20007;-66
2023/10/29 13:32:46;;;;;;;2.08;1.10;;;;;;;;;;6276581;22;20007;-66
2023/10/29 13:35:16;;;;;;;2.85;1.30;;;;;;;;;;6276526;22;20105;-66
2023/10/29 13:37:43;;;;;;;2.10;1.25;;;;;;;;;;6276503;22;20000;-66
2023/10/29 13:40:09;;;;;;;2.42;1.30;;;;;;;;;;6276811;22;20008;-67
2023/10/29 13:42:34;;;;;;;1.70;1.20;;;;;;;;;;6276393;22;20026;-66
2023/10/29 13:45:01;;;;;;;1.33;1.00;;;;;;;;;;6276711;22;20428;-67
2023/10/29 13:47:26;;;;;;;2.58;1.20;;;;;;;;;;6276449;22;20073;-67
2023/10/29 13:49:52;;;;;;;2.60;1.30;;;;;;;;;;6276242;22;20003;-66
2023/10/29 13:52:18;;;;;;;2.28;1.30;;;;;;;;;;6276445;22;20007;-66
2023/10/29 13:54:43;;;;;;;2.88;1.20;;;;;;;;;;6276382;22;20008;-66
2023/10/29 13:57:09;;;;;;;1.90;1.20;;;;;;;;;;6276649;22;20010;-66
2023/10/29 13:59:35;;;;;;;2.15;1.27;;;;;;;;;;6276688;22;20327;-66
2023/10/29 14:02:00;;;;;;;2.38;1.48;;;;;;;;;;6276298;22;20010;-67
2023/10/29 14:04:26;;;;;;;2.10;1.50;;;;;;;;;;6276315;22;20035;-67
2023/10/29 14:06:51;;;;;;;3.13;1.38;;;;;;;;;;6276295;22;20125;-66
2023/10/29 14:09:17;;;;;;;1.02;1.00;;;;;;;;;;6276133;22;20420;-66
2023/10/29 14:11:42;;;;;;;2.42;1.10;;;;;;;;;;6276439;22;20004;-66
2023/10/29 14:14:08;;;;;;;2.72;1.30;;;;;;;;;;6275928;22;20018;-66
2023/10/29 14:16:39;;;;;;;1.40;1.30;;;;;;;;;;6276083;22;19999;-67
2023/10/29 14:19:06;;;;;;;1.45;1.30;;;;;;;;;;6275942;22;20004;-66
2023/10/29 14:21:31;;;;;;;2.25;1.30;;;;;;;;;;6276160;22;20007;-66
2023/10/29 14:23:57;;;;;;;2.05;1.50;;;;;;;;;;6276055;22;20498;-66
2023/10/29 14:26:23;;;;;;;2.58;1.40;;;;;;;;;;6276014;22;20004;-66
2023/10/29 14:28:48;;;;;;;2.33;1.40;;;;;;;;;;6276284;22;20325;-66
2023/10/29 14:31:14;;;;;;;1.73;1.10;;;;;;;;;;6275992;22;20436;-66
2023/10/29 14:33:40;;;;;;;3.20;1.58;;;;;;;;;;6276024;22;20030;-66
2023/10/29 14:36:06;;;;;;;3.03;1.20;;;;;;;;;;6275937;22;20070;-69
2023/10/29 14:38:31;;;;;;;2.55;1.25;;;;;;;;;;6276315;22;20482;-65
2023/10/29 14:40:57;;;;;;;2.10;1.33;;;;;;;;;;6275918;22;20344;-66
2023/10/29 14:43:22;;;;;;;1.55;1.30;;;;;;;;;;6275927;22;19999;-66
2023/10/29 14:45:52;;;;;;;3.78;1.25;;;;;;;;;;6275759;22;20000;-66
2023/10/29 14:48:18;;;;;;;1.38;1.27;;;;;;;;;;6275830;22;20004;-66
2023/10/29 14:50:45;;;;;;;1.55;1.15;;;;;;;;;;6275776;22;20068;-66
2023/10/29 14:53:10;;;;;;;3.53;1.50;;;;;;;;;;6276235;22;20003;-66
2023/10/29 14:55:36;;;;;;;1.77;1.30;;;;;;;;;;6275702;22;20007;-66
2023/10/29 14:58:02;;;;;;;2.17;1.30;;;;;;;;;;6275803;22;20049;-66
2023/10/29 15:00:28;;;;;;;1.77;1.30;;;;;;;;;;6276077;22;20007;-66
2023/10/29 15:02:54;;;;;;;1.88;1.30;;;;;;;;;;6275616;22;20031;-66
2023/10/29 15:05:19;;;;;;;1.30;1.20;;;;;;;;;;6275994;22;20003;-66
2023/10/29 15:07:45;;;;;;;1.77;1.30;;;;;;;;;;6275714;22;20345;-66
2023/10/29 15:10:11;;;;;;;1.40;1.30;;;;;;;;;;6275992;22;20023;-66
2023/10/29 15:12:37;;;;;;;2.95;1.50;;;;;;;;;;6275711;22;20016;-66
2023/10/29 15:15:03;;;;;;;1.30;1.20;;;;;;;;;;6275749;22;20010;-66
2023/10/29 15:17:29;;;;;;;1.25;1.15;;;;;;;;;;6276083;22;20004;-66
2023/10/29 15:19:57;;;;;;;2.10;1.27;;;;;;;;;;6248608;22;20314;-66
2023/10/29 15:22:23;;;;;;;2.70;1.40;;;;;;;;;;6275701;22;20031;-66
2023/10/29 15:24:49;;;;;;;1.60;1.50;;;;;;;;;;6275684;22;20004;-66
2023/10/29 15:27:15;;;;;;;1.92;1.55;;;;;;;;;;6275663;22;20079;-66
2023/10/29 15:29:42;;;;;;;1.83;1.50;;;;;;;;;;6276131;22;20004;-66
2023/10/29 15:32:08;;;;;;;2.65;1.50;;;;;;;;;;6277592;22;20083;-66
2023/10/29 15:34:34;;;;;;;1.40;1.30;;;;;;;;;;6277621;22;20023;-66
2023/10/29 15:37:00;;;;;;;1.42;1.30;;;;;;;;;;6277984;22;20006;-66
2023/10/29 15:39:27;;;;;;;2.85;1.30;;;;;;;;;;6278000;22;20298;-66
2023/10/29 15:41:53;;;;;;;2.50;1.27;;;;;;;;;;6278021;22;20003;-66
2023/10/29 15:44:18;;;;;;;3.28;1.40;;;;;;;;;;6277614;22;20079;-66
2023/10/29 15:46:44;;;;;;;2.15;1.42;;;;;;;;;;6277663;22;20034;-66
2023/10/29 15:49:11;;;;;;;2.08;1.40;;;;;;;;;;6277562;22;20360;-66
2023/10/29 15:51:37;;;;;;;1.77;1.20;;;;;;;;;;6277655;22;20014;-66
2023/10/29 15:54:02;;;;;;;2.15;1.25;;;;;;;;;;6277577;22;20321;-66
2023/10/29 15:56:30;;;;;;;1.65;1.40;;;;;;;;;;6277571;22;20007;-66
2023/10/29 15:58:56;;;;;;;1.65;1.38;;;;;;;;;;6277523;22;20099;-66
2023/10/29 16:01:21;;;;;;;1.60;1.33;;;;;;;;;;6277453;22;20445;-66
2023/10/29 16:03:47;;;;;;;3.20;1.35;;;;;;;;;;6277359;22;20048;-66
2023/10/29 16:06:13;;;;;;;1.27;1.20;;;;;;;;;;6277420;22;20076;-66
2023/10/29 16:08:39;;;;;;;2.17;1.20;;;;;;;;;;6277512;22;20000;-66
2023/10/29 16:11:08;;;;;;;3.33;1.33;;;;;;;;;;6277342;22;20321;-66
2023/10/29 16:13:34;;;;;;;1.55;1.10;;;;;;;;;;6276961;22;20008;-66
2023/10/29 16:16:00;;;;;;;2.22;1.30;;;;;;;;;;6277704;22;20371;-66
2023/10/29 16:18:29;;;;;;;1.38;1.27;;;;;;;;;;6277138;22;20034;-66
2023/10/29 16:20:55;;;;;;;2.58;1.30;;;;;;;;;;6277572;22;20006;-66
2023/10/29 16:23:21;;;;;;;2.60;1.50;;;;;;;;;;6277165;22;20325;-69
2023/10/29 16:25:47;;;;;;;2.08;1.40;;;;;;;;;;6277007;22;20004;-66
2023/10/29 16:28:12;;;;;;;1.67;1.45;;;;;;;;;;6273130;22;20122;-70
2023/10/29 16:30:38;;;;;;;1.65;1.55;;;;;;;;;;6274219;22;20328;-66
2023/10/29 16:33:03;;;;;;;3.80;1.40;;;;;;;;;;6276929;22;20082;-66
2023/10/29 16:35:29;;;;;;;3.08;1.50;;;;;;;;;;6277297;22;20030;-69
2023/10/29 16:37:55;;;;;;;2.15;1.38;;;;;;;;;;6277030;22;19999;-66
2023/10/29 16:40:20;;;;;;;2.85;1.40;;;;;;;;;;6276768;22;20490;-66
2023/10/29 16:42:46;;;;;;;3.25;1.60;;;;;;;;;;6277117;22;20082;-65
2023/10/29 16:45:11;;;;;;;4.07;1.40;;;;;;;;;;6276941;22;20423;-65
2023/10/29 16:47:37;;;;;;;1.92;1.50;;;;;;;;;;6276942;22;20102;-66
2023/10/29 16:50:03;;;;;;;7.07;1.48;;;;;;;;;;6276868;22;20270;-67
2023/10/29 16:52:29;;;;;;;2.20;1.35;;;;;;;;;;6276853;22;20436;-66
2023/10/29 16:54:55;;;;;;;3.92;1.60;;;;;;;;;;6277144;22;20004;-66
2023/10/29 16:57:20;;;;;;;2.85;1.38;;;;;;;;;;6276689;22;20078;-66
2023/10/29 16:59:46;;;;;;;2.53;1.40;;;;;;;;;;6276711;22;20042;-66
2023/10/29 17:02:11;;;;;;;5.05;1.30;;;;;;;;;;6277440;22;20044;-66
2023/10/29 17:04:37;;;;;;;1.83;1.40;;;;;;;;;;6277018;22;20329;-66
2023/10/29 17:07:03;;;;;;;3.35;1.50;;;;;;;;;;6276707;22;20015;-66
2023/10/29 17:09:29;;;;;;;4.60;1.50;;;;;;;;;;6276855;22;20011;-66
2023/10/29 17:11:55;;;;;;;1.85;1.30;;;;;;;;;;6276662;22;20027;-66
2023/10/29 17:14:22;;;;;;;2.85;1.30;;;;;;;;;;6276389;22;20008;-66
2023/10/29 17:16:48;;;;;;;3.20;1.40;;;;;;;;;;6276856;22;20007;-66
2023/10/29 17:19:17;;;;;;;1.70;1.30;;;;;;;;;;6276541;22;20006;-67
2023/10/29 17:21:43;;;;;;;1.63;1.45;;;;;;;;;;6276683;22;20060;-67
2023/10/29 17:24:08;;;;;;;6.30;1.67;;;;;;;;;;6276609;22;20445;-66
2023/10/29 17:26:34;;;;;;;2.15;1.55;;;;;;;;;;6276502;22;20004;-66
2023/10/29 17:29:00;;;;;;;3.08;1.60;;;;;;;;;;6276438;22;20004;-67
2023/10/29 17:31:25;;;;;;;3.85;1.40;;;;;;;;;;6276571;22;20000;-66
2023/10/29 17:33:51;;;;;;;3.60;1.73;;;;;;;;;;6276389;22;20062;-67
2023/10/29 17:36:17;;;;;;;3.13;1.73;;;;;;;;;;6276244;22;20475;-67
2023/10/29 17:38:44;;;;;;;2.15;1.80;;;;;;;;;;6276440;22;20019;-66
2023/10/29 17:41:17;;;;;;;4.13;1.40;;;;;;;;;;6276620;22;20010;-66
2023/10/29 17:43:44;;;;;;;3.20;1.90;;;;;;;;;;6276728;22;20316;-67
2023/10/29 17:46:17;;;;;;;2.05;1.30;;;;;;;;;;6276208;22;20008;-66
2023/10/29 17:48:44;;;;;;;4.20;1.70;;;;;;;;;;6276425;22;20012;-67
2023/10/29 17:51:09;;;;;;;5.30;1.60;;;;;;;;;;6276146;22;19999;-67
2023/10/29 17:53:36;;;;;;;4.10;1.58;;;;;;;;;;6275606;22;19999;-67
2023/10/29 17:56:03;;;;;;;4.30;1.60;;;;;;;;;;6276238;22;20000;-66
2023/10/29 17:58:33;;;;;;;2.85;1.70;;;;;;;;;;6276150;22;20006;-66
2023/10/29 18:00:59;;;;;;;2.67;1.50;;;;;;;;;;6276560;22;20478;-65
2023/10/29 18:03:25;;;;;;;2.60;1.65;;;;;;;;;;6276164;22;20000;-65
2023/10/29 18:05:52;;;;;;;2.10;1.23;;;;;;;;;;6276178;22;20010;-65
2023/10/29 18:08:17;;;;;;;3.92;1.58;;;;;;;;;;6276330;22;20086;-65
2023/10/29 18:10:43;;;;;;;3.22;1.77;;;;;;;;;;6276001;22;20028;-66
2023/10/29 18:13:08;;;;;;;5.30;1.83;;;;;;;;;;6276042;22;20062;-65
2023/10/29 18:15:35;;;;;;;3.60;1.80;;;;;;;;;;6276239;22;20106;-66
2023/10/29 18:18:00;;;;;;;2.63;1.60;;;;;;;;;;6275823;22;20412;-66
2023/10/29 18:20:26;;;;;;;3.80;1.67;;;;;;;;;;6275993;22;20010;-67
2023/10/29 18:22:52;;;;;;;3.63;1.70;;;;;;;;;;6275648;22;20058;-67
2023/10/29 18:25:18;;;;;;;3.40;1.58;;;;;;;;;;6276168;22;19995;-67
2023/10/29 18:27:44;;;;;;;8.77;2.55;;;;;;;;;;6276022;22;20004;-64
2023/10/29 18:30:10;;;;;;;5.05;1.60;;;;;;;;;;6275817;22;20062;-65
2023/10/29 18:32:36;;;;;;;6.32;1.80;;;;;;;;;;6275971;22;20172;-64
2023/10/29 18:35:03;;;;;;;9.38;2.20;;;;;;;;;;6276316;22;19995;-64
2023/10/29 18:37:29;;;;;;;5.15;2.00;;;;;;;;;;6276140;22;20092;-63
2023/10/29 18:39:54;;;;;;;1.92;1.55;;;;;;;;;;6276264;22;20372;-63
2023/10/29 18:42:20;;;;;;;4.38;1.63;;;;;;;;;;6275868;22;20078;-63
2023/10/29 18:44:46;;;;;;;4.43;1.70;;;;;;;;;;6275686;22;20000;-64
2023/10/29 18:47:11;;;;;;;4.47;1.70;;;;;;;;;;6275843;22;20006;-63
2023/10/29 18:49:38;;;;;;;3.85;1.90;;;;;;;;;;6276020;22;20007;-64
2023/10/29 18:52:04;;;;;;;4.15;1.90;;;;;;;;;;6275822;22;20083;-64
2023/10/29 18:54:30;;;;;;;3.10;2.63;;;;;;;;;;6276157;22;19999;-65
2023/10/29 18:56:55;;;;;;;3.75;1.90;;;;;;;;;;6275840;22;20452;-63
2023/10/29 18:59:21;;;;;;;2.70;1.63;;;;;;;;;;6275980;22;20011;-65
2023/10/29 19:01:47;;;;;;;4.78;1.83;;;;;;;;;;6275648;22;20041;-65
2023/10/29 19:04:13;;;;;;;2.75;1.70;;;;;;;;;;6275729;22;20004;-65
2023/10/29 19:06:38;;;;;;;8.60;2.40;;;;;;;;;;6275637;22;20003;-66
2023/10/29 19:09:04;;;;;;;10.27;2.70;;;;;;;;;;6275717;22;20015;-65
2023/10/29 19:11:33;;;;;;;9.82;3.10;;;;;;;;;;6275634;22;20027;-65
2023/10/29 19:13:59;;;;;;;7.97;2.83;;;;;;;;;;6275537;22;20062;-65
2023/10/29 19:16:25;;;;;;;12.27;2.75;;;;;;;;;;6248630;22;20030;-67
2023/10/29 19:18:51;;;;;;;7.95;2.88;;;;;;;;;;6275676;22;20322;-66
2023/10/29 19:21:16;;;;;;;5.75;2.63;;;;;;;;;;6275634;22;20321;-66
2023/10/29 19:23:42;;;;;;;6.05;2.65;;;;;;;;;;6248906;22;20000;-65
2023/10/29 19:26:08;;;;;;;8.82;2.80;;;;;;;;;;6275580;22;20008;-66
2023/10/29 19:28:34;;;;;;;10.25;2.95;;;;;;;;;;6275577;22;20004;-65
2023/10/29 19:30:59;;;;;;;7.45;2.70;;;;;;;;;;6275974;22;20317;-66
2023/10/29 19:33:25;;;;;;;9.68;2.63;;;;;;;;;;6275576;22;20302;-72
2023/10/29 19:35:51;;;;;;;7.55;2.53;;;;;;;;;;6275654;22;20007;-66
2023/10/29 19:38:18;;;;;;;12.82;2.78;;;;;;;;;;6275517;22;20076;-66
2023/10/29 19:40:44;;;;;;;9.32;2.58;;;;;;;;;;6275777;22;20427;-66
2023/10/29 19:43:09;;;;;;;5.68;2.42;;;;;;;;;;6275545;22;20003;-66
2023/10/29 19:45:35;;;;;;;9.48;3.03;;;;;;;;;;6275540;22;20066;-66
2023/10/29 19:48:01;;;;;;;8.13;2.20;;;;;;;;;;6275425;22;20027;-66
2023/10/29 19:50:26;;;;;;;5.80;2.20;;;;;;;;;;6275816;22;20008;-71
2023/10/29 19:52:52;;;;;;;4.60;2.25;;;;;;;;;;6275473;22;20023;-66
2023/10/29 19:55:18;;;;;;;3.75;2.13;;;;;;;;;;6275458;22;20008;-66
2023/10/29 19:57:46;;;;;;;8.18;2.20;;;;;;;;;;6275247;22;20008;-65
2023/10/29 20:00:17;;;;;;;7.50;2.20;;;;;;;;;;6275375;22;20078;-66
2023/10/29 20:02:43;;;;;;;5.97;1.92;;;;;;;;;;6275404;22;20077;-65
2023/10/29 20:05:09;;;;;;;5.20;2.30;;;;;;;;;;6275555;22;20011;-66
2023/10/29 20:07:35;;;;;;;4.53;2.10;;;;;;;;;;6275307;22;19996;-66
2023/10/29 20:10:00;;;;;;;3.75;2.03;;;;;;;;;;6275464;22;20053;-67
2023/10/29 20:12:26;;;;;;;4.43;2.35;;;;;;;;;;6275091;22;20031;-66
2023/10/29 20:14:52;;;;;;;14.65;2.10;;;;;;;;;;6275574;22;20034;-66
2023/10/29 20:17:17;;;;;;;16.23;2.60;;;;;;;;;;6249628;22;20007;-67
2023/10/29 20:19:43;;;;;;;7.40;2.80;;;;;;;;;;6277293;22;20452;-66
2023/10/29 20:22:08;;;;;;;5.68;2.00;;;;;;;;;;6277532;22;20003;-66
2023/10/29 20:24:34;;;;;;;3.67;1.88;;;;;;;;;;6277123;22;20429;-66
2023/10/29 20:27:00;;;;;;;4.38;2.20;;;;;;;;;;6277232;22;19999;-66
2023/10/29 20:29:25;;;;;;;3.75;1.88;;;;;;;;;;6277058;22;20011;-66
2023/10/29 20:31:51;;;;;;;8.10;2.22;;;;;;;;;;6276862;22;19996;-68
2023/10/29 20:34:17;;;;;;;5.72;2.00;;;;;;;;;;6276878;22;20007;-66
2023/10/29 20:36:42;;;;;;;3.28;2.00;;;;;;;;;;6276886;22;20433;-66
2023/10/29 20:39:08;;;;;;;3.28;2.00;;;;;;;;;;6277047;22;20018;-67
2023/10/29 20:41:35;;;;;;;6.13;1.88;;;;;;;;;;6277053;22;20000;-66
2023/10/29 20:44:00;;;;;;;5.88;1.83;;;;;;;;;;6276948;22;20471;-67
2023/10/29 20:46:26;;;;;;;5.22;1.90;;;;;;;;;;6277217;22;20003;-66
2023/10/29 20:48:51;;;;;;;3.45;2.08;;;;;;;;;;6276883;22;20007;-66
2023/10/29 20:51:17;;;;;;;3.00;1.95;;;;;;;;;;6277061;22;20427;-66
2023/10/29 20:53:42;;;;;;;3.13;1.80;;;;;;;;;;6276921;22;20409;-66
2023/10/29 20:56:08;;;;;;;3.83;1.80;;;;;;;;;;6276851;22;20006;-66
2023/10/29 20:58:34;;;;;;;4.10;1.90;;;;;;;;;;6276859;22;19999;-67
2023/10/29 21:01:02;;;;;;;2.92;1.70;;;;;;;;;;6276855;22;20015;-66
2023/10/29 21:03:28;;;;;;;8.43;1.92;;;;;;;;;;6276431;22;20000;-72
2023/10/29 21:05:59;;;;;;;4.38;2.30;;;;;;;;;;6276661;22;20049;-66
2023/10/29 21:08:25;;;;;;;3.15;1.58;;;;;;;;;;6276570;22;19996;-63
2023/10/29 21:10:59;;;;;;;5.10;1.80;;;;;;;;;;6276733;22;20000;-63